Latest Weather Observations for Gabo Island

IDV60801

Issued at 9:02 am EDT Tuesday 21 February 2017 (issued every 30 minutes, with the page automatically refreshed every 10 minutes)

About weather observations | Map of weather stations | Latest weather observations for VIC | Other Formats
Station Details ID: 084016 Name: GABO ISLAND LIGHTHOUSE Lat: -37.57 Lon: 149.92 Height: 15.2 m
Data from the previous 72 hours. | See also: Recent months at Gabo Island
Date/Time
EDT
Temp
°C
App
Temp
°C
Dew
Point
°C
Rel
Hum
%
Delta-T
°C
Wind Press
QNH
hPa
Press
MSL
hPa
Rain since
9am
mm
Dir  Spd
km/h
Gust
km/h
Spd
kts
Gust
kts
21/09:00am 17.3 13.5 9.9 62 3.9 W 20 28 11 15 1020.6 - 0.0
21/08:30am 16.7 12.7 10.3 66 3.4 W 22 30 12 16 1020.2 - 0.0
21/08:00am 16.1 11.2 9.8 66 3.3 W 26 32 14 17 1020.0 - 0.0
21/07:30am 14.5 10.9 9.9 74 2.4 WNW 19 24 10 13 1019.6 - 0.0
21/07:00am 14.7 10.2 10.1 74 2.4 W 24 32 13 17 1019.2 - 0.0
21/06:30am 14.6 11.1 10.2 75 2.3 W 19 28 10 15 1018.7 - 0.0
21/06:00am 14.6 9.9 9.3 70 2.7 W 24 30 13 16 1018.4 1018.3 0.0
21/05:30am 14.1 11.0 9.0 71 2.6 WNW 15 24 8 13 1018.1 - 0.0
21/05:00am 14.6 10.2 9.1 69 2.8 W 22 30 12 16 1017.8 - 0.0
21/04:30am 14.7 10.8 8.5 66 3.1 WNW 19 30 10 16 1017.6 - 0.0
21/04:00am 14.8 10.3 8.4 65 3.2 WNW 22 28 12 15 1017.5 - 0.0
21/03:30am 15.1 10.5 8.3 64 3.4 W 22 30 12 16 1017.5 - 0.0
21/03:00am 15.6 9.9 8.5 62 3.6 W 28 35 15 19 1017.3 1017.2 0.0
21/02:30am 15.3 8.9 8.6 64 3.4 W 32 37 17 20 1017.1 - 0.0
21/02:00am 14.7 10.2 9.9 73 2.5 W 24 32 13 17 1017.2 - 0.0
21/01:30am 15.3 10.1 9.0 66 3.2 W 26 35 14 19 1017.1 - 0.0
21/01:00am 15.5 10.4 9.3 66 3.2 W 26 33 14 18 1017.1 - 0.0
21/12:30am 15.7 10.2 9.1 65 3.4 W 28 37 15 20 1016.9 - 0.0
21/12:00am 16.0 9.1 9.0 63 3.6 W 35 44 19 24 1016.6 1016.5 0.0
 
Date/Time
EDT
Temp
°C
App
Temp
°C
Dew
Point
°C
Rel
Hum
%
Delta-T
°C
Wind Press
QNH
hPa
Press
MSL
hPa
Rain since
9am
mm
Dir  Spd
km/h
Gust
km/h
Spd
kts
Gust
kts
20/11:30pm 16.2 9.7 9.0 62 3.7 W 33 44 18 24 1016.3 - 0.0
20/11:00pm 15.3 11.3 9.0 66 3.2 WNW 20 28 11 15 1016.2 - 0.0
20/10:30pm 16.3 9.8 8.9 61 3.8 W 33 43 18 23 1016.0 - 0.0
20/10:00pm 16.3 9.8 8.9 61 3.8 W 33 46 18 25 1015.5 - 0.0
20/09:30pm 16.3 10.1 9.4 63 3.6 W 32 37 17 20 1015.4 - 0.0
20/09:00pm 16.4 9.9 8.3 58 4.1 W 32 37 17 20 1015.1 1015.0 0.0
20/08:30pm 16.9 9.3 9.0 59 4.1 W 39 48 21 26 1014.5 - 0.0
20/08:00pm 17.1 10.4 8.3 56 4.5 WSW 33 43 18 23 1013.8 - 0.0
20/07:30pm 17.7 12.0 9.7 59 4.2 WSW 30 41 16 22 1013.2 - 0.0
20/07:00pm 17.6 11.4 9.4 58 4.3 W 32 44 17 24 1012.7 - 0.0
20/06:30pm 18.9 10.6 7.8 48 5.7 WSW 41 52 22 28 1012.1 - 0.0
20/06:00pm 19.1 9.4 7.5 47 5.9 WSW 48 63 26 34 1011.3 1011.2 0.0
20/05:30pm 19.0 11.0 9.1 52 5.2 WSW 41 50 22 27 1010.8 - 0.0
20/05:00pm 19.7 9.6 7.6 45 6.2 WSW 50 65 27 35 1010.2 - 0.0
20/04:47pm 20.1 10.1 7.7 44 6.4 WSW 50 72 27 39 1010.0 - 0.0
20/04:30pm 19.9 9.3 7.1 43 6.5 WSW 52 67 28 36 1009.8 - 0.0
20/04:00pm 19.8 8.8 7.0 43 6.5 WSW 54 72 29 39 1009.4 - 0.0
20/03:53pm 19.7 9.4 6.3 41 6.7 W 50 69 27 37 1009.2 - 0.0
20/03:30pm 19.8 10.0 7.0 43 6.5 WSW 48 59 26 32 1009.2 - 0.0
20/03:00pm 20.1 11.0 6.9 42 6.7 WSW 44 59 24 32 1008.8 1008.7 0.0
20/02:30pm 19.7 10.2 6.6 42 6.6 WSW 46 57 25 31 1008.7 - 0.0
20/02:00pm 19.6 11.0 6.4 42 6.6 WSW 41 52 22 28 1008.6 - 0.0
20/01:37pm 19.7 10.9 5.5 39 7.0 WSW 41 59 22 32 1008.5 - 0.0
20/01:30pm 19.2 10.9 5.9 41 6.6 W 39 54 21 29 1008.6 - 0.0
20/01:00pm 19.3 10.1 6.3 42 6.5 WSW 44 63 24 34 1008.3 - 0.0
20/12:59pm 19.4 10.1 5.9 41 6.7 WSW 44 63 24 34 1008.3 - 0.0
20/12:30pm 19.2 10.1 6.9 44 6.2 W 44 57 24 31 1008.2 - 0.0
20/12:15pm 18.4 9.3 6.0 44 6.1 W 43 63 23 34 1008.2 - 0.0
20/12:00pm 18.5 9.8 7.5 48 5.6 W 43 59 23 32 1008.2 1008.1 0.0
20/11:56am 18.0 9.5 7.0 48 5.5 W 41 59 22 32 1008.2 - 0.0
20/11:30am 17.8 8.7 5.7 45 5.9 W 43 54 23 29 1008.2 - 0.0
20/11:17am 17.8 9.4 7.3 50 5.3 WSW 41 61 22 33 1008.2 - 0.0
20/11:00am 17.4 7.7 6.0 47 5.6 W 46 61 25 33 1008.3 - 0.0
20/10:41am 17.1 7.6 6.8 50 5.1 W 46 65 25 35 1008.4 - 0.0
20/10:30am 16.8 6.8 6.2 49 5.2 W 48 65 26 35 1008.2 - 0.0
20/10:03am 16.1 6.7 5.5 49 5.1 W 44 65 24 35 1007.9 - 0.0
20/10:00am 16.3 7.8 6.8 53 4.7 W 41 57 22 31 1008.0 - 0.0
20/09:51am 15.9 8.4 6.5 53 4.6 W 35 54 19 29 1008.0 - 0.0
20/09:30am 15.1 8.5 6.0 54 4.4 W 30 39 16 21 1008.0 - 0.0
20/09:00am 14.1 8.7 6.4 60 3.7 WNW 24 35 13 19 1008.1 1008.0 14.0
20/08:30am 13.2 8.2 6.5 64 3.2 WNW 22 32 12 17 1008.1 - 14.0
20/08:00am 12.6 7.4 7.2 69 2.6 WNW 24 32 13 17 1007.7 - 14.0
20/07:30am 11.9 6.5 7.8 76 2.0 WNW 26 35 14 19 1007.5 - 14.0
20/07:00am 11.1 6.4 7.6 79 1.7 WNW 22 32 12 17 1007.5 - 14.0
20/06:30am 11.2 5.3 7.5 78 1.8 W 28 33 15 18 1007.3 - 14.0
20/06:00am 11.2 5.7 7.7 79 1.7 W 26 35 14 19 1007.1 1007.0 14.0
20/05:30am 11.5 5.4 8.3 81 1.6 W 30 39 16 21 1006.8 - 14.0
20/05:00am 11.7 5.7 8.5 81 1.6 W 30 37 16 20 1006.9 - 14.0
20/04:30am 11.6 6.4 8.8 83 1.4 W 26 33 14 18 1007.1 - 14.0
20/04:00am 11.3 7.5 8.9 85 1.2 W 19 26 10 14 1007.4 - 14.0
20/03:30am 11.2 5.4 8.1 81 1.5 W 28 35 15 19 1007.4 - 14.0
20/03:00am 11.4 4.4 8.4 82 1.5 W 35 44 19 24 1007.3 1007.2 13.4
20/02:30am 13.0 6.3 7.3 68 2.8 W 32 37 17 20 1007.4 - 13.2
20/02:00am 13.2 6.4 7.5 68 2.8 WSW 33 43 18 23 1007.9 - 13.2
20/01:30am 13.8 6.2 9.1 73 2.4 WSW 39 48 21 26 1008.2 - 13.2
20/01:00am 14.0 6.0 8.9 71 2.6 WSW 41 50 22 27 1008.1 - 13.2
20/12:30am 14.2 4.8 8.7 69 2.8 WSW 48 57 26 31 1008.0 - 13.2
20/12:00am 14.5 6.4 10.1 75 2.3 WSW 43 50 23 27 1008.2 1008.1 13.2
 
Date/Time
EDT
Temp
°C
App
Temp
°C
Dew
Point
°C
Rel
Hum
%
Delta-T
°C
Wind Press
QNH
hPa
Press
MSL
hPa
Rain since
9am
mm
Dir  Spd
km/h
Gust
km/h
Spd
kts
Gust
kts
19/11:30pm 15.1 7.4 11.4 78 2.0 SW 43 59 23 32 1007.8 - 13.2
19/11:00pm 14.8 6.2 11.6 81 1.7 SW 48 56 26 30 1007.8 - 13.0
19/10:30pm 15.1 7.2 11.6 79 1.9 SW 44 54 24 29 1007.9 - 12.4
19/10:00pm 15.4 6.9 12.1 81 1.8 SW 48 56 26 30 1007.9 - 12.4
19/09:30pm 15.1 7.4 12.0 82 1.7 SW 44 56 24 30 1008.1 - 12.4
19/09:10pm 15.1 10.1 12.2 83 1.6 SW 30 50 16 27 1008.3 - 12.4
19/09:00pm 14.8 13.1 12.6 87 1.2 NW 13 20 7 11 1007.8 1007.7 12.4
19/08:30pm 16.1 11.0 13.1 82 1.7 ENE 32 37 17 20 1006.9 - 12.0
19/08:00pm 14.8 11.6 9.8 72 2.6 N 17 32 9 17 1006.8 - 10.2
19/07:30pm 17.9 14.1 11.3 65 3.6 ESE 22 28 12 15 1006.0 - 0.8
19/07:00pm 18.4 14.8 10.6 60 4.2 ESE 20 26 11 14 1005.8 - 0.0
19/06:30pm 18.8 15.2 10.0 56 4.7 E 19 28 10 15 1006.0 - 0.0
19/06:00pm 18.8 14.9 10.7 59 4.4 E 22 28 12 15 1006.1 1006.0 0.0
19/05:30pm 18.8 15.1 11.5 62 4.0 E 22 30 12 16 1006.2 - 0.0
19/05:00pm 18.6 15.2 11.3 62 4.0 E 20 24 11 13 1006.3 - 0.0
19/04:30pm 18.6 15.2 11.3 62 4.0 E 20 28 11 15 1006.3 - 0.0
19/04:00pm 18.3 14.8 10.9 62 4.0 E 20 26 11 14 1006.5 - 0.0
19/03:30pm 18.9 15.7 11.2 61 4.2 E 19 26 10 14 1006.7 - 0.0
19/03:00pm 19.4 16.0 10.5 56 4.8 E 19 24 10 13 1007.0 1006.9 0.0
19/02:30pm 19.0 15.5 10.3 57 4.7 E 19 24 10 13 1007.2 - 0.0
19/02:00pm 18.9 15.1 9.7 55 4.9 E 20 26 11 14 1007.6 - 0.0
19/01:30pm 19.6 16.7 9.7 52 5.3 E 15 20 8 11 1007.8 - 0.0
19/01:00pm 19.5 16.5 9.1 51 5.5 E 15 24 8 13 1008.0 - 0.0
19/12:30pm 19.6 16.7 8.0 47 6.0 ESE 13 20 7 11 1008.4 - 0.0
19/12:00pm 19.1 16.8 7.5 47 5.9 SE 9 13 5 7 1008.5 1008.4 0.0
19/11:30am 18.8 16.5 7.6 48 5.7 S 9 11 5 6 1008.9 - 0.0
19/11:00am 18.5 15.7 8.5 52 5.2 SW 13 17 7 9 1009.0 - 0.0
19/10:30am 18.5 16.1 8.7 53 5.1 W 11 17 6 9 1009.2 - 0.0
19/10:00am 18.3 15.6 10.3 59 4.3 W 15 19 8 10 1009.3 - 0.0
19/09:30am 17.3 14.4 9.7 61 4.0 WNW 15 19 8 10 1009.5 - 0.0
19/09:00am 16.9 13.9 9.2 60 4.0 WNW 15 19 8 10 1009.6 1009.5 5.4
19/08:30am 15.7 13.0 8.9 64 3.5 NW 13 19 7 10 1009.6 - 5.4
19/08:00am 15.2 12.2 9.2 67 3.1 NW 15 20 8 11 1009.6 - 5.4
19/07:30am 14.3 11.3 9.2 71 2.6 NW 15 19 8 10 1009.6 - 5.4
19/07:00am 13.9 10.9 9.4 74 2.3 NW 15 19 8 10 1009.6 - 5.4
19/06:30am 13.9 11.4 9.6 75 2.2 NW 13 19 7 10 1009.5 - 5.4
19/06:00am 13.9 11.4 9.8 76 2.1 NW 13 17 7 9 1009.3 1009.2 5.4
19/05:30am 13.8 10.9 9.7 76 2.1 NW 15 19 8 10 1009.2 - 5.4
19/05:00am 13.9 11.2 10.5 80 1.8 WNW 15 20 8 11 1009.2 - 5.4
19/04:30am 14.0 11.4 10.6 80 1.8 NW 15 20 8 11 1009.0 - 5.4
19/04:00am 14.3 11.3 10.7 79 1.9 WNW 17 20 9 11 1009.1 - 5.4
19/03:30am 14.8 11.0 11.0 78 2.0 W 22 28 12 15 1009.1 - 5.4
19/03:00am 14.9 10.8 11.4 79 1.9 W 24 32 13 17 1009.1 1009.0 5.4
19/02:30am 15.1 10.9 11.2 77 2.1 W 24 30 13 16 1009.2 - 5.4
19/02:00am 15.1 11.3 11.2 77 2.1 W 22 28 12 15 1009.5 - 5.4
19/01:30am 15.0 10.7 10.6 75 2.3 W 24 30 13 16 1010.1 - 5.4
19/01:00am 14.4 10.0 11.8 84 1.4 W 26 32 14 17 1010.6 - 5.4
19/12:30am 15.1 10.5 11.2 77 2.1 W 26 32 14 17 1010.4 - 5.4
19/12:00am 15.1 10.7 11.8 81 1.8 W 26 33 14 18 1010.6 1010.5 5.4
 
Date/Time
EDT
Temp
°C
App
Temp
°C
Dew
Point
°C
Rel
Hum
%
Delta-T
°C
Wind Press
QNH
hPa
Press
MSL
hPa
Rain since
9am
mm
Dir  Spd
km/h
Gust
km/h
Spd
kts
Gust
kts
18/11:30pm 15.2 10.2 12.3 83 1.6 W 30 35 16 19 1010.5 - 5.4
18/11:00pm 16.0 10.8 12.9 82 1.7 SW 32 43 17 23 1010.3 - 5.4
18/10:30pm 16.8 10.1 11.0 68 3.1 SW 37 46 20 25 1010.5 - 5.4
18/10:00pm 16.1 11.2 12.5 79 2.0 WSW 30 39 16 21 1010.8 - 5.4
18/09:36pm 16.0 11.1 12.6 80 1.9 WSW 30 46 16 25 1010.9 - 5.4
18/09:30pm 16.6 9.5 10.8 68 3.1 SSW 39 46 21 25 1010.8 - 5.4
18/09:00pm 16.5 9.5 11.3 71 2.8 SW 39 46 21 25 1010.4 1010.3 5.4
18/08:38pm 15.9 9.1 13.2 84 1.5 SSW 41 46 22 25 1010.1 - 5.4
18/08:30pm 15.9 11.5 13.0 83 1.6 WSW 28 35 15 19 1010.1 - 5.2
18/08:00pm 15.7 10.4 13.2 85 1.4 SW 33 44 18 24 1009.6 - 5.2
18/07:30pm 15.7 8.8 12.8 83 1.6 SSW 41 50 22 27 1009.3 - 5.2
18/07:00pm 15.4 7.8 13.6 89 1.0 SW 46 56 25 30 1008.9 - 5.2
18/06:30pm 16.0 9.1 14.6 91 0.8 SW 44 54 24 29 1008.6 - 4.8
18/06:00pm 16.4 11.5 13.7 84 1.5 SW 32 39 17 21 1008.5 1008.4 4.8
18/05:30pm 16.0 10.4 14.4 90 0.9 SW 37 43 20 23 1008.1 - 4.8
18/05:00pm 16.4 11.8 14.7 90 1.0 SSW 32 37 17 20 1008.1 - 3.8
18/04:30pm 16.6 13.7 14.0 84 1.5 SW 22 32 12 17 1007.9 - 1.8
18/04:00pm 17.0 11.9 13.6 80 1.9 SSW 33 41 18 22 1007.8 - 1.0
18/03:30pm 17.1 12.0 13.6 80 2.0 SSW 33 41 18 22 1007.8 - 1.0
18/03:00pm 17.0 11.8 14.6 86 1.4 SSW 35 43 19 23 1007.9 1007.8 1.0
18/02:30pm 16.3 10.1 14.9 91 0.8 SSW 41 46 22 25 1007.9 - 1.0
18/02:00pm 16.7 11.1 15.5 93 0.7 SSW 39 44 21 24 1007.8 - 1.0
18/01:30pm 17.1 12.5 16.1 94 0.6 SSW 35 39 19 21 1008.1 - 0.6
18/01:00pm 17.7 13.8 15.5 87 1.3 SSW 30 35 16 19 1008.3 - 0.0
18/12:30pm 18.5 14.8 16.0 85 1.5 SW 30 35 16 19 1008.4 - 0.0
18/12:00pm 19.4 16.9 15.2 76 2.5 S 22 26 12 14 1008.3 1008.2 0.0
18/11:30am 20.2 17.4 15.3 73 2.9 SSW 24 28 13 15 1008.3 - 0.0
18/11:00am 19.4 16.0 15.7 79 2.2 SSW 28 33 15 18 1008.7 - 0.0
18/10:30am 18.8 15.7 15.6 82 1.9 SSW 26 32 14 17 1008.6 - 0.0
18/10:00am 19.1 15.9 15.4 79 2.2 SSW 26 35 14 19 1008.5 - 0.0
18/09:30am 20.0 16.9 15.6 76 2.6 WSW 26 33 14 18 1008.4 - 0.0

Other Formats:

Comma delimited format used in spreadsheet applications
http://www.bom.gov.au/fwo/IDV60801/IDV60801.94933.axf

JavaScript Object Notation format (JSON) in row-major order
http://www.bom.gov.au/fwo/IDV60801/IDV60801.94933.json